Time;durP1;ratioP1;P1;durP2;ratioP2;P2;SDS_P1;SDS_P2;PMS_P1;PMS_P2;Temp;Humidity;BMP_temperature;BMP_pressure;BME280_temperature;BME280_humidity;BME280_pressure;Samples;Min_cycle;Max_cycle;Signal;HPM_P1;HPM_P2
2022/11/12 05:00:20;;;;;;;2.17;2.08;;;4.80;99.90;;;;;;6043633;23;20328;-70
2022/11/12 05:02:49;;;;;;;4.85;2.47;;;4.80;99.90;;;;;;6060209;23;20177;-69
2022/11/12 05:05:16;;;;;;;3.03;2.58;;;4.80;99.90;;;;;;6065187;23;20191;-69
2022/11/12 05:07:43;;;;;;;1.92;1.83;;;4.80;99.90;;;;;;6066410;23;20165;-69
2022/11/12 05:10:10;;;;;;;1.58;1.58;;;4.80;99.90;;;;;;6067172;23;20648;-69
2022/11/12 05:12:37;;;;;;;2.47;2.38;;;4.80;99.90;;;;;;6066215;23;20609;-70
2022/11/12 05:15:04;;;;;;;2.60;2.38;;;4.80;99.90;;;;;;6066158;23;20638;-68
2022/11/12 05:17:32;;;;;;;0.63;0.55;;;4.80;99.90;;;;;;6066798;23;20186;-69
2022/11/12 05:19:59;;;;;;;1.67;1.67;;;4.80;99.90;;;;;;6066855;23;20186;-69
2022/11/12 05:22:25;;;;;;;1.13;1.10;;;4.80;99.90;;;;;;6067079;23;20216;-69
2022/11/12 05:24:52;;;;;;;1.90;1.53;;;4.70;99.90;;;;;;6065918;23;20180;-69
2022/11/12 05:27:20;;;;;;;1.13;1.13;;;4.70;99.90;;;;;;6067627;23;20182;-69
2022/11/12 05:29:47;;;;;;;1.63;1.52;;;4.70;99.90;;;;;;6066822;23;20217;-68
2022/11/12 05:32:17;;;;;;;2.33;2.22;;;4.70;99.90;;;;;;6067393;23;20281;-69
2022/11/12 05:34:45;;;;;;;4.20;3.13;;;4.70;99.90;;;;;;6066697;23;20778;-70
2022/11/12 05:37:13;;;;;;;2.35;2.22;;;4.70;99.90;;;;;;6076429;23;20400;-70
2022/11/12 05:39:40;;;;;;;1.52;1.05;;;4.70;99.90;;;;;;6067302;23;20208;-69
2022/11/12 05:42:07;;;;;;;2.10;1.52;;;4.60;99.90;;;;;;6063509;23;20536;-69
2022/11/12 05:44:34;;;;;;;2.13;1.58;;;4.60;99.90;;;;;;6064110;23;20185;-69
2022/11/12 05:47:00;;;;;;;2.92;2.67;;;4.60;99.90;;;;;;6066289;23;20185;-70
2022/11/12 05:49:27;;;;;;;1.40;1.23;;;4.50;99.90;;;;;;6065924;23;20192;-70
2022/11/12 05:51:55;;;;;;;1.05;1.05;;;4.50;99.90;;;;;;6066019;23;20213;-70
2022/11/12 05:54:23;;;;;;;3.55;3.05;;;4.50;99.90;;;;;;6065064;23;20193;-70
2022/11/12 05:56:51;;;;;;;3.22;3.00;;;4.50;99.90;;;;;;6065963;23;20205;-70
2022/11/12 05:59:18;;;;;;;2.55;2.35;;;4.50;99.90;;;;;;6067026;23;20208;-69
2022/11/12 06:01:45;;;;;;;10.75;3.67;;;4.40;99.90;;;;;;6066995;23;20267;-70
2022/11/12 06:04:13;;;;;;;3.08;1.73;;;4.40;99.90;;;;;;6065678;23;20181;-69
2022/11/12 06:06:40;;;;;;;3.42;3.20;;;4.40;99.90;;;;;;6067270;23;20188;-69
2022/11/12 06:09:09;;;;;;;3.55;2.92;;;4.40;99.90;;;;;;6065872;23;20185;-70
2022/11/12 06:11:37;;;;;;;2.38;2.17;;;4.40;99.90;;;;;;6066147;23;20210;-69
2022/11/12 06:14:04;;;;;;;2.38;2.17;;;4.40;99.90;;;;;;6063361;23;20942;-69
2022/11/12 06:16:31;;;;;;;3.58;2.45;;;4.40;99.90;;;;;;6063119;23;20308;-69
2022/11/12 06:18:58;;;;;;;2.22;2.13;;;4.40;99.90;;;;;;6064043;23;20182;-69
2022/11/12 06:21:26;;;;;;;1.83;1.83;;;4.40;99.90;;;;;;6067655;23;20205;-69
2022/11/12 06:23:55;;;;;;;4.45;4.00;;;4.40;99.90;;;;;;6066157;23;20523;-69
2022/11/12 06:26:25;;;;;;;2.40;2.38;;;4.40;99.90;;;;;;6066801;23;20381;-68
2022/11/12 06:28:52;;;;;;;2.58;2.47;;;4.40;99.90;;;;;;6065330;23;20182;-69
2022/11/12 06:31:19;;;;;;;3.80;3.10;;;4.30;99.90;;;;;;6065616;23;20213;-69
2022/11/12 06:33:47;;;;;;;1.75;1.52;;;4.40;99.90;;;;;;6064270;23;20285;-69
2022/11/12 06:36:15;;;;;;;2.30;2.22;;;4.40;99.90;;;;;;6065031;23;20700;-68
2022/11/12 06:38:42;;;;;;;3.15;2.85;;;4.40;99.90;;;;;;6065235;23;20765;-69
2022/11/12 06:41:11;;;;;;;1.92;1.83;;;4.40;99.90;;;;;;6065153;23;20212;-69
2022/11/12 06:43:39;;;;;;;5.05;2.05;;;4.40;99.90;;;;;;6064945;23;20208;-68
2022/11/12 06:46:08;;;;;;;1.75;1.65;;;4.40;99.90;;;;;;6064092;23;20656;-69
2022/11/12 06:48:35;;;;;;;2.33;2.17;;;4.40;99.90;;;;;;6064531;23;20495;-68
2022/11/12 06:51:11;;;;;;;4.38;3.97;;;4.40;99.90;;;;;;6064512;23;20679;-69
2022/11/12 06:53:37;;;;;;;2.67;2.15;;;4.50;99.90;;;;;;6063010;23;20200;-69
2022/11/12 06:56:06;;;;;;;3.30;3.00;;;4.40;99.90;;;;;;6064151;23;20694;-69
2022/11/12 06:58:33;;;;;;;3.58;3.22;;;4.50;99.90;;;;;;6064785;23;20186;-68
2022/11/12 07:01:07;;;;;;;8.70;2.78;;;4.50;99.90;;;;;;6071290;23;20207;-69
2022/11/12 07:03:34;;;;;;;2.33;2.13;;;4.50;99.90;;;;;;6063982;23;20176;-69
2022/11/12 07:06:04;;;;;;;8.35;3.35;;;4.50;99.90;;;;;;6063591;23;20182;-68
2022/11/12 07:08:31;;;;;;;2.08;1.98;;;4.50;99.90;;;;;;6063188;23;20189;-69
2022/11/12 07:10:58;;;;;;;2.65;2.17;;;4.50;99.90;;;;;;6064283;23;20221;-70
2022/11/12 07:13:25;;;;;;;1.70;1.60;;;4.50;99.90;;;;;;6072462;23;20193;-71
2022/11/12 07:15:52;;;;;;;4.43;3.03;;;4.50;99.90;;;;;;6064125;23;20625;-71
2022/11/12 07:18:20;;;;;;;1.75;1.48;;;4.50;99.90;;;;;;6064231;23;20698;-71
2022/11/12 07:20:47;;;;;;;3.03;2.80;;;4.60;99.90;;;;;;6063797;23;20272;-71
2022/11/12 07:23:13;;;;;;;3.92;2.67;;;4.60;99.90;;;;;;6063457;23;20190;-72
2022/11/12 07:25:40;;;;;;;4.57;2.80;;;4.60;99.90;;;;;;6064440;23;20510;-72
2022/11/12 07:28:07;;;;;;;2.65;2.53;;;4.60;99.90;;;;;;6063036;23;20188;-69
2022/11/12 07:30:34;;;;;;;2.95;2.60;;;4.60;99.90;;;;;;6064753;23;20216;-69
2022/11/12 07:33:01;;;;;;;3.22;3.03;;;4.70;99.90;;;;;;6063696;23;20182;-71
2022/11/12 07:35:29;;;;;;;7.32;4.43;;;4.70;99.90;;;;;;6064528;23;20182;-70
2022/11/12 07:37:56;;;;;;;4.97;2.80;;;4.70;99.90;;;;;;6062380;23;20182;-69
2022/11/12 07:40:22;;;;;;;2.40;2.30;;;4.70;99.90;;;;;;6064107;23;20194;-69
2022/11/12 07:42:49;;;;;;;3.05;2.83;;;4.70;99.90;;;;;;6070554;23;20190;-71
2022/11/12 07:45:16;;;;;;;7.53;3.30;;;4.70;99.90;;;;;;6059259;23;20182;-68
2022/11/12 07:47:42;;;;;;;5.55;3.90;;;4.70;99.90;;;;;;6071646;23;20185;-69
2022/11/12 07:50:10;;;;;;;3.95;2.53;;;4.80;99.90;;;;;;6064982;23;20182;-69
2022/11/12 07:52:38;;;;;;;4.90;3.67;;;4.80;99.90;;;;;;6064228;23;20198;-69
2022/11/12 07:55:06;;;;;;;20.35;3.15;;;4.80;99.90;;;;;;6065042;23;20182;-69
2022/11/12 07:57:33;;;;;;;6.35;3.47;;;4.90;99.90;;;;;;6062505;23;20337;-69
2022/11/12 07:59:59;;;;;;;3.22;3.08;;;4.90;99.90;;;;;;6064333;23;20204;-70
2022/11/12 08:02:26;;;;;;;3.65;3.45;;;4.90;99.90;;;;;;6064448;23;20214;-70
2022/11/12 08:04:53;;;;;;;6.78;5.50;;;4.90;99.90;;;;;;6063569;23;20197;-70
2022/11/12 08:07:19;;;;;;;1.92;1.83;;;4.90;99.90;;;;;;6063986;23;20178;-71
2022/11/12 08:09:47;;;;;;;2.75;2.55;;;5.00;99.90;;;;;;6063623;23;20268;-70
2022/11/12 08:12:14;;;;;;;4.97;3.92;;;5.00;99.90;;;;;;6073654;23;20213;-73
2022/11/12 08:14:41;;;;;;;3.13;3.00;;;5.10;99.90;;;;;;6062021;23;20193;-70
2022/11/12 08:17:08;;;;;;;2.90;2.75;;;5.10;99.90;;;;;;6064089;23;20208;-70
2022/11/12 08:19:34;;;;;;;1.98;1.88;;;5.20;99.90;;;;;;6063016;23;20626;-69
2022/11/12 08:22:01;;;;;;;4.22;3.97;;;5.30;99.90;;;;;;6063672;23;20206;-69
2022/11/12 08:24:28;;;;;;;6.43;2.95;;;5.30;99.90;;;;;;6063190;23;20182;-68
2022/11/12 08:26:56;;;;;;;6.65;3.60;;;5.40;99.90;;;;;;6063218;23;20211;-68
2022/11/12 08:29:23;;;;;;;3.03;2.83;;;5.40;99.90;;;;;;6063202;23;20189;-68
2022/11/12 08:31:49;;;;;;;2.92;2.83;;;5.50;99.90;;;;;;6063635;23;20205;-68
2022/11/12 08:34:16;;;;;;;6.65;2.95;;;5.60;99.90;;;;;;6063046;23;20185;-70
2022/11/12 08:36:43;;;;;;;2.38;2.28;;;5.60;99.90;;;;;;6072582;23;20201;-67
2022/11/12 08:39:10;;;;;;;3.45;3.17;;;5.70;99.90;;;;;;6063935;23;20301;-68
2022/11/12 08:41:36;;;;;;;2.90;2.75;;;5.90;99.90;;;;;;6064419;23;20209;-68
2022/11/12 08:44:05;;;;;;;2.90;2.65;;;5.90;99.90;;;;;;6063660;23;20524;-68
2022/11/12 08:46:32;;;;;;;2.85;2.63;;;5.90;99.90;;;;;;6063810;23;20179;-68
2022/11/12 08:48:58;;;;;;;3.05;2.97;;;6.00;99.90;;;;;;6063282;23;20193;-67
2022/11/12 08:51:25;;;;;;;3.08;2.72;;;6.00;99.90;;;;;;6061773;23;20238;-67
2022/11/12 08:53:52;;;;;;;3.67;3.22;;;6.10;99.90;;;;;;6062556;23;20185;-68
2022/11/12 08:56:18;;;;;;;3.05;2.28;;;6.10;99.90;;;;;;6072938;23;20286;-67
2022/11/12 08:58:45;;;;;;;2.28;2.13;;;6.20;99.90;;;;;;6062737;23;20194;-67
2022/11/12 09:01:13;;;;;;;3.22;3.03;;;6.30;99.90;;;;;;6062012;23;20249;-68
2022/11/12 09:03:40;;;;;;;3.05;2.80;;;6.40;99.90;;;;;;6062696;23;20512;-68
2022/11/12 09:06:07;;;;;;;2.90;2.30;;;6.50;99.90;;;;;;6062450;23;20224;-68
2022/11/12 09:08:36;;;;;;;5.32;2.35;;;6.60;99.90;;;;;;6062890;23;20193;-67
2022/11/12 09:11:03;;;;;;;5.18;2.97;;;6.60;99.90;;;;;;6060517;23;20210;-67
2022/11/12 09:13:30;;;;;;;4.93;3.15;;;6.80;99.90;;;;;;6062033;23;20618;-67
2022/11/12 09:16:05;;;;;;;3.00;2.80;;;6.90;99.90;;;;;;6062700;23;20187;-68
2022/11/12 09:18:34;;;;;;;2.15;2.05;;;7.00;99.90;;;;;;6064328;23;20222;-67
2022/11/12 09:21:03;;;;;;;4.90;2.92;;;7.10;99.90;;;;;;6073780;23;20206;-66
2022/11/12 09:23:30;;;;;;;3.22;3.05;;;7.20;99.90;;;;;;6064240;23;20190;-68
2022/11/12 09:25:57;;;;;;;4.10;3.90;;;7.40;99.90;;;;;;6064629;23;20638;-67
2022/11/12 09:28:23;;;;;;;6.50;5.57;;;7.40;99.90;;;;;;6063969;23;20237;-67
2022/11/12 09:30:52;;;;;;;2.63;2.53;;;7.50;99.90;;;;;;6064905;23;20249;-67
2022/11/12 09:33:20;;;;;;;5.13;3.33;;;7.50;99.90;;;;;;6062431;23;20191;-67
2022/11/12 09:35:49;;;;;;;2.33;2.22;;;7.50;99.90;;;;;;6063839;23;20191;-67
2022/11/12 09:38:16;;;;;;;5.10;2.65;;;7.60;99.90;;;;;;6064395;23;20245;-67
2022/11/12 09:41:14;;;;;;;4.28;3.97;;;7.80;99.90;;;;;;6064535;23;20329;-67
2022/11/12 09:43:47;;;;;;;2.78;2.58;;;7.90;99.90;;;;;;6063349;23;20187;-68
2022/11/12 09:46:25;;;;;;;5.40;3.50;;;8.00;99.90;;;;;;6063906;23;20905;-67
2022/11/12 09:48:56;;;;;;;3.28;2.17;;;8.20;99.90;;;;;;6064198;23;20179;-67
2022/11/12 09:51:26;;;;;;;5.78;2.67;;;8.30;99.90;;;;;;6063355;23;20380;-67
2022/11/12 09:53:56;;;;;;;2.28;2.00;;;8.50;99.90;;;;;;6062897;23;20175;-67
2022/11/12 09:56:24;;;;;;;3.15;2.90;;;8.70;99.90;;;;;;6061896;23;20230;-68
2022/11/12 09:58:52;;;;;;;6.65;4.45;;;8.80;99.90;;;;;;6063954;23;20190;-68
2022/11/12 10:01:24;;;;;;;5.20;4.30;;;8.80;99.90;;;;;;6063640;23;20211;-67
2022/11/12 10:04:01;;;;;;;3.97;2.13;;;8.90;99.90;;;;;;6063683;23;20164;-67
2022/11/12 10:06:36;;;;;;;2.83;2.70;;;9.00;99.90;;;;;;6064846;23;20168;-68
2022/11/12 10:09:09;;;;;;;1.92;1.92;;;9.20;99.90;;;;;;6065642;23;20623;-68
2022/11/12 10:14:51;;;;;;;1.90;1.90;;;9.40;99.90;;;;;;6063301;23;20175;-68
2022/11/12 10:17:26;;;;;;;1.83;1.75;;;9.60;99.90;;;;;;6063718;23;20193;-67
2022/11/12 10:20:04;;;;;;;5.57;3.28;;;9.70;99.90;;;;;;6060457;23;20624;-67
2022/11/12 10:22:43;;;;;;;2.47;2.38;;;9.80;99.90;;;;;;6063387;23;20303;-67
2022/11/12 10:25:17;;;;;;;2.17;2.08;;;9.90;99.90;;;;;;6064133;23;20189;-67
2022/11/12 10:27:44;;;;;;;1.85;1.40;;;10.10;99.90;;;;;;6063311;23;20196;-68
2022/11/12 10:30:15;;;;;;;2.00;1.90;;;10.10;99.90;;;;;;6063107;23;20209;-68
2022/11/12 10:32:44;;;;;;;2.28;2.17;;;10.10;99.90;;;;;;6061325;23;20268;-68
2022/11/12 10:35:14;;;;;;;1.95;1.85;;;10.20;99.90;;;;;;6062687;23;20188;-70
2022/11/12 10:37:47;;;;;;;5.68;2.30;;;10.20;99.90;;;;;;6063609;23;20205;-67
2022/11/12 10:40:28;;;;;;;3.88;3.10;;;10.30;99.90;;;;;;6062961;23;20171;-67
2022/11/12 10:42:57;;;;;;;2.13;2.05;;;10.40;99.90;;;;;;6063286;23;20196;-67
2022/11/12 10:45:24;;;;;;;3.05;2.75;;;10.50;99.90;;;;;;6063171;23;20193;-68
2022/11/12 10:47:51;;;;;;;3.70;3.17;;;10.60;99.90;;;;;;6063394;23;20267;-68
2022/11/12 10:50:21;;;;;;;1.60;1.60;;;10.60;99.90;;;;;;6064262;23;20194;-66
2022/11/12 10:53:00;;;;;;;5.43;1.85;;;10.70;99.90;;;;;;6064127;23;20182;-68
2022/11/12 10:55:29;;;;;;;2.60;2.40;;;10.80;99.90;;;;;;6064131;23;20170;-68
2022/11/12 10:58:07;;;;;;;3.58;2.15;;;10.90;99.90;;;;;;6062682;23;20499;-68
2022/11/12 11:00:34;;;;;;;4.78;2.38;;;11.00;99.90;;;;;;6060959;23;20218;-67
2022/11/12 11:03:03;;;;;;;3.90;3.03;;;11.10;99.90;;;;;;6060127;23;20179;-67
2022/11/12 11:05:34;;;;;;;0.95;0.95;;;11.10;99.90;;;;;;6062613;23;20243;-67
2022/11/12 11:08:02;;;;;;;1.52;1.52;;;11.20;99.90;;;;;;6062066;23;20166;-67
2022/11/12 11:10:32;;;;;;;3.22;2.75;;;11.20;99.90;;;;;;6061929;23;20203;-67
2022/11/12 11:13:20;;;;;;;3.67;2.42;;;11.30;99.90;;;;;;6062902;23;20186;-67
2022/11/12 11:15:59;;;;;;;1.95;1.70;;;11.40;99.90;;;;;;6062001;23;20194;-67
2022/11/12 11:18:27;;;;;;;2.47;2.30;;;11.30;99.90;;;;;;6062790;23;20261;-67
2022/11/12 11:21:07;;;;;;;2.13;1.80;;;11.30;99.90;;;;;;6062743;23;20211;-66
2022/11/12 11:23:43;;;;;;;1.05;1.05;;;11.30;99.90;;;;;;6062899;23;20177;-66
2022/11/12 11:26:29;;;;;;;2.95;2.30;;;11.40;99.90;;;;;;6063490;23;20191;-66
2022/11/12 11:29:08;;;;;;;3.22;1.83;;;11.30;99.90;;;;;;6062232;23;20182;-67
2022/11/12 11:31:44;;;;;;;2.17;1.95;;;11.30;99.90;;;;;;6061868;23;20217;-68
2022/11/12 11:34:21;;;;;;;3.25;2.65;;;11.30;99.90;;;;;;6061555;23;20171;-67
2022/11/12 11:36:57;;;;;;;5.40;1.90;;;11.20;99.90;;;;;;6064342;23;20203;-68
2022/11/12 11:39:38;;;;;;;1.90;1.80;;;11.20;99.90;;;;;;6062255;23;20173;-68
2022/11/12 11:42:18;;;;;;;5.72;2.72;;;11.20;99.90;;;;;;6062022;23;20210;-68
2022/11/12 11:44:56;;;;;;;3.47;2.67;;;11.30;99.90;;;;;;6063154;23;20196;-68
2022/11/12 11:47:35;;;;;;;3.42;2.00;;;11.30;99.90;;;;;;6063955;23;20172;-67
2022/11/12 11:50:16;;;;;;;2.00;1.90;;;11.40;99.90;;;;;;6066818;23;20174;-68
2022/11/12 11:52:54;;;;;;;2.22;1.85;;;11.30;99.90;;;;;;6063224;23;20171;-68
2022/11/12 11:55:33;;;;;;;1.75;1.70;;;11.40;99.90;;;;;;6059736;23;20681;-68
2022/11/12 11:58:20;;;;;;;1.90;1.55;;;11.40;99.90;;;;;;6063442;23;20227;-67
2022/11/12 12:00:55;;;;;;;3.97;1.95;;;11.50;99.90;;;;;;6058392;23;20218;-67
2022/11/12 12:03:25;;;;;;;1.52;1.30;;;11.50;99.90;;;;;;6061479;23;20464;-68
2022/11/12 12:06:15;;;;;;;1.75;1.65;;;11.30;99.90;;;;;;6063642;23;20186;-68
2022/11/12 12:08:58;;;;;;;3.00;1.75;;;11.50;99.90;;;;;;6062749;23;20196;-68
2022/11/12 12:11:31;;;;;;;1.92;1.83;;;11.60;99.90;;;;;;6063003;23;20207;-68
2022/11/12 12:14:26;;;;;;;2.45;2.20;;;11.60;99.90;;;;;;6063507;23;20625;-69
2022/11/12 12:17:03;;;;;;;1.35;1.25;;;11.70;99.90;;;;;;6062876;23;20190;-68
2022/11/12 12:19:51;;;;;;;1.40;1.27;;;11.70;99.90;;;;;;6063165;23;20506;-69
2022/11/12 12:22:24;;;;;;;5.45;1.92;;;11.70;99.90;;;;;;6063385;23;20202;-68
2022/11/12 12:24:56;;;;;;;3.10;1.90;;;11.70;99.90;;;;;;6061560;23;20210;-68
2022/11/12 12:27:30;;;;;;;1.50;1.25;;;11.80;99.90;;;;;;6063178;23;20416;-69
2022/11/12 12:30:00;;;;;;;2.13;1.75;;;11.80;99.90;;;;;;6063327;23;20472;-68
2022/11/12 12:32:32;;;;;;;1.83;1.50;;;11.90;99.90;;;;;;6063233;23;20538;-68
2022/11/12 12:35:03;;;;;;;1.40;1.38;;;11.90;99.90;;;;;;6061502;23;20553;-68
2022/11/12 12:37:37;;;;;;;2.00;1.53;;;12.00;99.90;;;;;;6063013;23;20522;-68
2022/11/12 12:40:13;;;;;;;1.30;1.30;;;12.10;99.90;;;;;;6062239;23;20411;-67
2022/11/12 12:42:47;;;;;;;2.50;2.30;;;12.10;99.90;;;;;;6062910;23;20447;-68
2022/11/12 12:45:31;;;;;;;1.80;1.67;;;12.10;99.90;;;;;;6061844;23;20828;-68
2022/11/12 12:47:59;;;;;;;4.73;3.20;;;12.20;99.90;;;;;;6062821;23;20886;-68
2022/11/12 12:50:26;;;;;;;2.73;2.27;;;12.20;99.90;;;;;;6061059;23;20431;-67
2022/11/12 12:53:01;;;;;;;3.13;1.63;;;12.30;99.90;;;;;;6071439;23;20435;-69
2022/11/12 12:55:39;;;;;;;2.43;2.07;;;12.20;99.90;;;;;;6062969;23;20437;-67
2022/11/12 12:58:18;;;;;;;1.97;1.87;;;12.20;99.90;;;;;;6064093;23;20440;-67
2022/11/12 13:00:49;;;;;;;2.30;2.20;;;12.20;99.90;;;;;;6064752;23;20794;-68
2022/11/12 13:03:54;;;;;;;2.63;1.87;;;12.20;99.90;;;;;;6061439;23;20466;-70
2022/11/12 13:06:27;;;;;;;1.67;1.57;;;12.50;99.90;;;;;;6063189;23;20407;-68
2022/11/12 13:08:58;;;;;;;2.03;2.00;;;12.20;99.90;;;;;;6064359;23;20424;-68
2022/11/12 13:15:11;;;;;;;2.77;2.23;;;12.10;99.90;;;;;;6064725;23;20190;-68
2022/11/12 13:17:50;;;;;;;1.60;1.60;;;12.10;99.90;;;;;;6064635;23;20462;-68
2022/11/12 13:20:34;;;;;;;3.97;2.53;;;12.00;99.90;;;;;;6064197;23;20483;-68
2022/11/12 13:23:01;;;;;;;2.00;1.90;;;12.00;99.90;;;;;;6073638;23;20439;-68
2022/11/12 13:25:29;;;;;;;3.70;1.80;;;11.90;99.90;;;;;;6069440;23;20432;-68
2022/11/12 13:28:13;;;;;;;1.50;1.40;;;11.90;99.90;;;;;;6071370;23;20423;-66
2022/11/12 13:31:02;;;;;;;2.00;2.00;;;11.90;99.90;;;;;;6064418;23;20447;-66
2022/11/12 13:33:33;;;;;;;1.73;1.63;;;11.90;99.90;;;;;;6063249;23;20768;-67
2022/11/12 13:36:26;;;;;;;1.70;1.60;;;11.80;99.90;;;;;;6064722;23;20486;-66
2022/11/12 13:44:16;;;;;;;1.40;1.40;;;11.80;99.90;;;;;;6092271;23;20423;-70
2022/11/12 13:46:45;;;;;;;2.90;2.60;;;11.70;99.90;;;;;;6093778;23;20949;-70
2022/11/12 13:49:14;;;;;;;2.10;2.00;;;11.70;99.90;;;;;;6088019;23;20422;-70
2022/11/12 13:51:44;;;;;;;2.13;1.97;;;11.70;99.90;;;;;;6064820;23;20183;-71
2022/11/12 13:54:32;;;;;;;2.83;1.88;;;11.60;99.90;;;;;;6064302;23;20794;-71
2022/11/12 13:57:14;;;;;;;3.30;1.30;;;11.60;99.90;;;;;;6064712;23;20171;-71
2022/11/12 13:59:40;;;;;;;3.80;2.13;;;11.50;99.90;;;;;;6063783;23;20204;-71
2022/11/12 14:02:20;;;;;;;2.03;1.88;;;11.40;99.90;;;;;;6064294;23;20188;-70
2022/11/12 14:04:46;;;;;;;3.97;1.60;;;11.40;99.90;;;;;;6063153;23;20190;-70
2022/11/12 14:07:31;;;;;;;3.40;2.47;;;11.30;99.90;;;;;;6064642;23;20435;-71
2022/11/12 14:10:09;;;;;;;4.97;1.13;;;11.30;99.90;;;;;;6064942;23;20580;-70
2022/11/12 14:12:59;;;;;;;2.45;1.80;;;11.20;99.90;;;;;;6063655;23;20167;-69
2022/11/12 14:15:42;;;;;;;2.08;1.50;;;11.10;99.90;;;;;;6064665;23;20169;-69
2022/11/12 14:18:17;;;;;;;2.42;2.22;;;11.10;99.90;;;;;;6063939;23;20193;-70
2022/11/12 14:20:44;;;;;;;1.42;1.42;;;11.00;99.90;;;;;;6064854;23;20208;-71
2022/11/12 14:23:13;;;;;;;2.55;2.42;;;11.00;99.90;;;;;;6063947;23;20194;-71
2022/11/12 14:25:47;;;;;;;2.25;2.08;;;11.00;99.90;;;;;;6064902;23;20487;-71
2022/11/12 14:28:26;;;;;;;2.70;2.60;;;10.90;99.90;;;;;;6074715;23;20670;-71
2022/11/12 14:30:52;;;;;;;4.40;2.90;;;10.80;99.90;;;;;;6063373;23;20247;-71
2022/11/12 14:33:22;;;;;;;3.15;2.95;;;10.80;99.90;;;;;;6063099;23;20193;-72
2022/11/12 14:35:50;;;;;;;7.60;2.90;;;10.80;99.90;;;;;;6064140;23;20197;-72
2022/11/12 14:38:20;;;;;;;3.08;2.70;;;10.80;99.90;;;;;;6064340;23;20210;-72
2022/11/12 14:40:51;;;;;;;1.85;1.75;;;10.80;99.90;;;;;;6062422;23;20293;-71
2022/11/12 14:43:25;;;;;;;2.80;2.60;;;10.70;99.90;;;;;;6063723;23;20170;-69
2022/11/12 14:45:54;;;;;;;1.88;1.77;;;10.70;99.90;;;;;;6063664;23;20197;-71
2022/11/12 14:48:22;;;;;;;1.92;1.83;;;10.90;99.90;;;;;;6063494;23;20183;-70
2022/11/12 14:50:54;;;;;;;3.22;2.20;;;10.50;99.90;;;;;;6063832;23;20598;-70
2022/11/12 14:53:26;;;;;;;2.13;1.95;;;10.50;99.90;;;;;;6063053;23;20174;-70
2022/11/12 14:55:54;;;;;;;2.88;2.60;;;10.40;99.90;;;;;;6063584;23;20176;-70
2022/11/12 14:58:23;;;;;;;1.45;1.42;;;10.30;99.90;;;;;;6062761;23;20291;-70
2022/11/12 15:00:51;;;;;;;2.38;1.85;;;10.30;99.90;;;;;;6062411;23;20209;-71
2022/11/12 15:03:20;;;;;;;3.05;2.85;;;10.10;99.90;;;;;;6063416;23;20197;-70
2022/11/12 15:06:11;;;;;;;2.55;2.45;;;10.00;99.90;;;;;;6064925;23;20188;-71
2022/11/12 15:08:40;;;;;;;4.45;2.38;;;9.90;99.90;;;;;;6064729;23;20506;-71
2022/11/12 15:11:23;;;;;;;2.05;1.95;;;9.80;99.90;;;;;;6062617;23;20205;-72
2022/11/12 15:13:52;;;;;;;2.38;2.25;;;9.70;99.90;;;;;;6064521;23;20563;-72
2022/11/12 15:16:23;;;;;;;6.20;3.83;;;9.60;99.90;;;;;;6063324;23;20292;-71
2022/11/12 15:19:13;;;;;;;3.15;2.95;;;9.50;99.90;;;;;;6065045;23;20616;-71
2022/11/12 15:21:47;;;;;;;2.78;2.67;;;9.40;99.90;;;;;;6064047;23;20179;-71
2022/11/12 15:24:20;;;;;;;3.83;2.97;;;9.30;99.90;;;;;;6064474;23;20172;-71
2022/11/12 15:26:49;;;;;;;3.17;2.95;;;9.30;99.90;;;;;;6063533;23;20564;-71
2022/11/12 15:29:24;;;;;;;2.92;2.83;;;9.10;99.90;;;;;;6063786;23;20204;-70
2022/11/12 15:31:52;;;;;;;2.25;2.15;;;9.10;99.90;;;;;;6063237;23;20532;-70
2022/11/12 15:34:44;;;;;;;2.97;2.78;;;9.00;99.90;;;;;;6061493;23;20206;-71
2022/11/12 15:37:21;;;;;;;4.53;3.90;;;8.90;99.90;;;;;;6063572;23;20546;-71
2022/11/12 15:39:49;;;;;;;3.00;2.88;;;8.80;99.90;;;;;;6062952;23;20210;-71
2022/11/12 15:42:25;;;;;;;5.55;3.95;;;8.70;99.90;;;;;;6064624;23;20187;-72
2022/11/12 15:44:58;;;;;;;6.35;4.32;;;8.60;99.90;;;;;;6065855;23;20172;-72
2022/11/12 15:47:25;;;;;;;3.70;3.50;;;8.50;99.90;;;;;;6066393;23;20238;-72
2022/11/12 15:49:54;;;;;;;6.50;4.65;;;8.50;99.90;;;;;;6067609;23;20278;-71
2022/11/12 15:52:22;;;;;;;4.45;4.10;;;8.40;99.90;;;;;;6067159;23;20230;-72
2022/11/12 15:54:49;;;;;;;3.58;3.28;;;8.40;99.90;;;;;;6064156;23;20207;-71
2022/11/12 15:57:19;;;;;;;6.15;5.13;;;8.30;99.90;;;;;;6065450;23;20836;-71
2022/11/12 15:59:54;;;;;;;5.47;4.35;;;8.30;99.90;;;;;;6064805;23;20212;-71
2022/11/12 16:02:21;;;;;;;7.82;7.22;;;8.20;99.90;;;;;;6066768;23;20172;-72
2022/11/12 16:04:47;;;;;;;5.53;3.85;;;8.10;99.90;;;;;;6074866;23;20184;-71
2022/11/12 16:07:14;;;;;;;3.25;2.60;;;8.00;99.90;;;;;;6067040;23;20183;-72
2022/11/12 16:09:42;;;;;;;7.88;4.97;;;8.00;99.90;;;;;;6066103;23;20413;-71
2022/11/12 16:12:11;;;;;;;4.65;4.20;;;8.00;99.90;;;;;;6066443;23;20188;-72
2022/11/12 16:14:38;;;;;;;4.22;3.83;;;7.90;99.90;;;;;;6065229;23;20705;-74
2022/11/12 16:17:06;;;;;;;4.90;4.53;;;7.90;99.90;;;;;;6066143;23;20194;-72
2022/11/12 16:19:33;;;;;;;4.22;3.67;;;7.80;99.90;;;;;;6065992;23;20227;-71
2022/11/12 16:22:00;;;;;;;8.73;4.90;;;7.70;99.90;;;;;;6075080;23;20671;-73
2022/11/12 16:24:27;;;;;;;5.32;4.85;;;7.70;99.90;;;;;;6064149;23;20183;-72
2022/11/12 16:26:55;;;;;;;5.55;5.15;;;7.60;99.90;;;;;;6068752;23;20187;-71
2022/11/12 16:29:22;;;;;;;8.65;6.40;;;7.60;99.90;;;;;;6067358;23;20706;-71
2022/11/12 16:31:49;;;;;;;13.68;7.72;;;7.60;99.90;;;;;;6068634;23;20183;-71
2022/11/12 16:34:15;;;;;;;5.80;5.43;;;7.50;99.90;;;;;;6065723;23;20183;-71
2022/11/12 16:36:42;;;;;;;10.18;6.68;;;7.50;99.90;;;;;;6066795;23;20667;-72
2022/11/12 16:39:13;;;;;;;7.88;6.78;;;7.40;99.90;;;;;;6065447;23;20210;-71
2022/11/12 16:41:39;;;;;;;9.60;6.93;;;7.40;99.90;;;;;;6066372;23;20171;-71
2022/11/12 16:44:07;;;;;;;7.82;6.50;;;7.30;99.90;;;;;;6065868;23;20189;-73
2022/11/12 16:46:39;;;;;;;8.75;7.85;;;7.30;99.90;;;;;;6066737;23;20238;-73
2022/11/12 16:49:05;;;;;;;6.63;5.70;;;7.30;99.90;;;;;;6067154;23;20174;-74
2022/11/12 16:51:32;;;;;;;12.38;6.85;;;7.30;99.90;;;;;;6066886;23;20202;-73
2022/11/12 16:53:59;;;;;;;6.85;6.35;;;7.30;99.90;;;;;;6065218;23;20194;-72
2022/11/12 16:56:26;;;;;;;8.95;6.30;;;7.20;99.90;;;;;;6070255;23;20641;-72
2022/11/12 16:58:52;;;;;;;13.27;8.68;;;7.20;99.90;;;;;;6070202;23;20207;-72
2022/11/12 17:01:24;;;;;;;19.15;8.23;;;7.20;99.90;;;;;;6065774;23;20214;-71
2022/11/12 17:03:51;;;;;;;12.52;8.25;;;7.10;99.90;;;;;;6064074;23;20178;-72
2022/11/12 17:06:18;;;;;;;10.80;7.65;;;7.10;99.90;;;;;;6066183;23;20191;-72
2022/11/12 17:08:46;;;;;;;15.43;7.95;;;7.10;99.90;;;;;;6064010;23;20186;-71
2022/11/12 17:11:14;;;;;;;8.05;7.45;;;7.00;99.90;;;;;;6065332;23;20210;-71
2022/11/12 17:13:41;;;;;;;14.73;8.00;;;7.00;99.90;;;;;;6063784;23;20190;-72
2022/11/12 17:16:09;;;;;;;11.73;9.10;;;7.00;99.90;;;;;;6064819;23;20183;-72
2022/11/12 17:18:37;;;;;;;6.10;5.50;;;6.90;99.90;;;;;;6064943;23;20209;-72
2022/11/12 17:21:12;;;;;;;7.03;6.40;;;6.90;99.90;;;;;;6064506;23;20239;-74
2022/11/12 17:23:39;;;;;;;10.15;8.00;;;6.80;99.90;;;;;;6064611;23;20196;-72
2022/11/12 17:26:09;;;;;;;13.40;7.82;;;6.80;99.90;;;;;;6064818;23;20218;-72
2022/11/12 17:28:36;;;;;;;10.52;8.05;;;6.70;99.90;;;;;;6064739;23;20261;-72
2022/11/12 17:31:08;;;;;;;12.18;9.02;;;6.70;99.90;;;;;;6066656;23;20591;-72
2022/11/12 17:33:40;;;;;;;11.77;10.50;;;6.70;99.90;;;;;;6064904;23;20286;-72
2022/11/12 17:36:08;;;;;;;16.80;9.07;;;6.60;99.90;;;;;;6067261;23;20167;-72
2022/11/12 17:38:35;;;;;;;16.27;8.68;;;6.60;99.90;;;;;;6062209;23;20210;-72
2022/11/12 17:41:03;;;;;;;12.32;9.90;;;6.60;99.90;;;;;;6063702;23;20277;-72
2022/11/12 17:43:30;;;;;;;12.50;10.73;;;6.50;99.90;;;;;;6064270;23;20186;-72
2022/11/12 17:45:57;;;;;;;8.88;8.10;;;6.50;99.90;;;;;;6064351;23;20183;-72
2022/11/12 17:48:24;;;;;;;15.90;13.02;;;6.50;99.90;;;;;;6065967;23;20186;-72
2022/11/12 17:51:02;;;;;;;24.42;12.15;;;6.40;99.90;;;;;;6066095;23;20211;-72
2022/11/12 17:53:29;;;;;;;24.23;14.35;;;6.40;99.90;;;;;;6065706;23;20562;-72
2022/11/12 17:55:57;;;;;;;31.10;16.50;;;6.40;99.90;;;;;;6067361;23;20186;-72
2022/11/12 17:58:24;;;;;;;23.25;14.35;;;6.40;99.90;;;;;;6065247;23;20638;-72
2022/11/12 18:00:51;;;;;;;21.73;12.15;;;6.40;99.90;;;;;;6065421;23;20206;-72
2022/11/12 18:03:18;;;;;;;25.10;12.00;;;6.30;99.90;;;;;;6066445;23;20205;-72
2022/11/12 18:05:45;;;;;;;15.68;12.70;;;6.30;99.90;;;;;;6066600;23;20204;-72
2022/11/12 18:08:14;;;;;;;17.00;13.25;;;6.30;99.90;;;;;;6066818;23;20190;-72
2022/11/12 18:10:44;;;;;;;20.30;9.07;;;6.30;99.90;;;;;;6064551;23;20301;-72
2022/11/12 18:13:11;;;;;;;18.75;11.63;;;6.20;99.90;;;;;;6064577;23;20187;-72
2022/11/12 18:15:37;;;;;;;18.17;14.20;;;6.20;99.90;;;;;;6064599;23;20186;-73
2022/11/12 18:18:04;;;;;;;24.10;12.50;;;6.20;99.90;;;;;;6063967;23;20527;-71
2022/11/12 18:20:31;;;;;;;28.70;13.10;;;6.20;99.90;;;;;;6065084;23;20720;-72
2022/11/12 18:22:58;;;;;;;21.73;13.32;;;6.20;99.90;;;;;;6062608;23;20249;-71